sensor_id;sensor_type;location;lat;lon;timestamp;temperature;humidity
23873;DHT22;42884;50.718;4.630;2023-05-17T00:01:33;9.70;99.90
23873;DHT22;42884;50.718;4.630;2023-05-17T00:03:59;9.60;99.90
23873;DHT22;42884;50.718;4.630;2023-05-17T00:06:25;9.60;99.90
23873;DHT22;42884;50.718;4.630;2023-05-17T00:08:50;9.50;99.90
23873;DHT22;42884;50.718;4.630;2023-05-17T00:11:16;9.50;99.90
23873;DHT22;42884;50.718;4.630;2023-05-17T00:13:42;9.40;99.90
23873;DHT22;42884;50.718;4.630;2023-05-17T00:16:08;9.40;99.90
23873;DHT22;42884;50.718;4.630;2023-05-17T00:18:33;9.30;99.90
23873;DHT22;42884;50.718;4.630;2023-05-17T00:20:59;9.30;99.90
23873;DHT22;42884;50.718;4.630;2023-05-17T00:23:25;9.20;99.90
23873;DHT22;42884;50.718;4.630;2023-05-17T00:25:51;9.20;99.90
23873;DHT22;42884;50.718;4.630;2023-05-17T00:28:17;9.10;99.90
23873;DHT22;42884;50.718;4.630;2023-05-17T00:30:42;9.10;99.90
23873;DHT22;42884;50.718;4.630;2023-05-17T00:33:08;9.00;99.90
23873;DHT22;42884;50.718;4.630;2023-05-17T00:35:34;9.00;99.90
23873;DHT22;42884;50.718;4.630;2023-05-17T00:38:00;9.00;99.90
23873;DHT22;42884;50.718;4.630;2023-05-17T00:40:25;8.90;99.90
23873;DHT22;42884;50.718;4.630;2023-05-17T00:42:51;8.90;99.90
23873;DHT22;42884;50.718;4.630;2023-05-17T00:45:17;8.90;99.90
23873;DHT22;42884;50.718;4.630;2023-05-17T00:47:42;8.80;99.90
23873;DHT22;42884;50.718;4.630;2023-05-17T00:50:09;8.80;99.90
23873;DHT22;42884;50.718;4.630;2023-05-17T00:52:36;8.80;99.90
23873;DHT22;42884;50.718;4.630;2023-05-17T00:55:02;8.70;99.90
23873;DHT22;42884;50.718;4.630;2023-05-17T00:57:28;8.70;99.90
23873;DHT22;42884;50.718;4.630;2023-05-17T00:59:55;8.60;99.90
23873;DHT22;42884;50.718;4.630;2023-05-17T01:02:21;8.60;99.90
23873;DHT22;42884;50.718;4.630;2023-05-17T01:04:47;8.60;99.90
23873;DHT22;42884;50.718;4.630;2023-05-17T01:07:13;8.60;99.90
23873;DHT22;42884;50.718;4.630;2023-05-17T01:09:39;8.50;99.90
23873;DHT22;42884;50.718;4.630;2023-05-17T01:15:15;8.50;99.90
23873;DHT22;42884;50.718;4.630;2023-05-17T01:20:35;8.40;99.90
23873;DHT22;42884;50.718;4.630;2023-05-17T01:23:34;8.30;99.90
23873;DHT22;42884;50.718;4.630;2023-05-17T01:26:32;8.30;99.90
23873;DHT22;42884;50.718;4.630;2023-05-17T01:29:01;8.20;99.90
23873;DHT22;42884;50.718;4.630;2023-05-17T01:31:29;8.20;99.90
23873;DHT22;42884;50.718;4.630;2023-05-17T01:33:56;8.20;99.90
23873;DHT22;42884;50.718;4.630;2023-05-17T01:36:23;8.10;99.90
23873;DHT22;42884;50.718;4.630;2023-05-17T01:38:50;8.10;99.90
23873;DHT22;42884;50.718;4.630;2023-05-17T01:41:38;8.10;99.90
23873;DHT22;42884;50.718;4.630;2023-05-17T01:46:41;8.00;99.90
23873;DHT22;42884;50.718;4.630;2023-05-17T01:49:11;8.00;99.90
23873;DHT22;42884;50.718;4.630;2023-05-17T01:54:45;7.90;99.90
23873;DHT22;42884;50.718;4.630;2023-05-17T01:57:12;7.90;99.90
23873;DHT22;42884;50.718;4.630;2023-05-17T01:59:39;7.90;99.90
23873;DHT22;42884;50.718;4.630;2023-05-17T02:02:06;7.80;99.90
23873;DHT22;42884;50.718;4.630;2023-05-17T02:04:34;7.80;99.90
23873;DHT22;42884;50.718;4.630;2023-05-17T02:07:01;7.80;99.90
23873;DHT22;42884;50.718;4.630;2023-05-17T02:09:27;7.70;99.90
23873;DHT22;42884;50.718;4.630;2023-05-17T02:11:53;7.80;99.90
23873;DHT22;42884;50.718;4.630;2023-05-17T02:14:19;7.80;99.90
23873;DHT22;42884;50.718;4.630;2023-05-17T02:16:45;7.70;99.90
23873;DHT22;42884;50.718;4.630;2023-05-17T02:19:10;7.70;99.90
23873;DHT22;42884;50.718;4.630;2023-05-17T02:21:37;7.70;99.90
23873;DHT22;42884;50.718;4.630;2023-05-17T02:24:03;7.70;99.90
23873;DHT22;42884;50.718;4.630;2023-05-17T02:26:29;7.60;99.90
23873;DHT22;42884;50.718;4.630;2023-05-17T02:28:56;7.60;99.90
23873;DHT22;42884;50.718;4.630;2023-05-17T02:31:22;7.60;99.90
23873;DHT22;42884;50.718;4.630;2023-05-17T02:33:52;7.50;99.90
23873;DHT22;42884;50.718;4.630;2023-05-17T02:36:17;7.50;99.90
23873;DHT22;42884;50.718;4.630;2023-05-17T02:38:43;7.50;99.90
23873;DHT22;42884;50.718;4.630;2023-05-17T02:41:09;7.50;99.90
23873;DHT22;42884;50.718;4.630;2023-05-17T02:43:35;7.50;99.90
23873;DHT22;42884;50.718;4.630;2023-05-17T02:46:00;7.40;99.90
23873;DHT22;42884;50.718;4.630;2023-05-17T02:48:26;7.40;99.90
23873;DHT22;42884;50.718;4.630;2023-05-17T02:50:52;7.40;99.90
23873;DHT22;42884;50.718;4.630;2023-05-17T02:53:18;7.40;99.90
23873;DHT22;42884;50.718;4.630;2023-05-17T02:55:43;7.40;99.90
23873;DHT22;42884;50.718;4.630;2023-05-17T02:58:09;7.40;99.90
23873;DHT22;42884;50.718;4.630;2023-05-17T03:00:35;7.40;99.90
23873;DHT22;42884;50.718;4.630;2023-05-17T03:03:01;7.30;99.90
23873;DHT22;42884;50.718;4.630;2023-05-17T03:05:27;7.30;99.90
23873;DHT22;42884;50.718;4.630;2023-05-17T03:07:52;7.20;99.90
23873;DHT22;42884;50.718;4.630;2023-05-17T03:10:18;7.20;99.90
23873;DHT22;42884;50.718;4.630;2023-05-17T03:12:44;7.20;99.90
23873;DHT22;42884;50.718;4.630;2023-05-17T03:15:10;7.20;99.90
23873;DHT22;42884;50.718;4.630;2023-05-17T03:17:36;7.20;99.90
23873;DHT22;42884;50.718;4.630;2023-05-17T03:20:02;7.20;99.90
23873;DHT22;42884;50.718;4.630;2023-05-17T03:22:28;7.20;99.90
23873;DHT22;42884;50.718;4.630;2023-05-17T03:24:54;7.20;99.90
23873;DHT22;42884;50.718;4.630;2023-05-17T03:27:19;7.20;99.90
23873;DHT22;42884;50.718;4.630;2023-05-17T03:29:45;7.20;99.90
23873;DHT22;42884;50.718;4.630;2023-05-17T03:32:11;7.20;99.90
23873;DHT22;42884;50.718;4.630;2023-05-17T03:34:36;7.20;99.90
23873;DHT22;42884;50.718;4.630;2023-05-17T03:37:02;7.20;99.90
23873;DHT22;42884;50.718;4.630;2023-05-17T03:39:28;7.10;99.90
23873;DHT22;42884;50.718;4.630;2023-05-17T03:41:54;7.10;99.90
23873;DHT22;42884;50.718;4.630;2023-05-17T03:44:19;7.10;99.90
23873;DHT22;42884;50.718;4.630;2023-05-17T03:46:45;7.00;99.90
23873;DHT22;42884;50.718;4.630;2023-05-17T03:49:11;7.00;99.90
23873;DHT22;42884;50.718;4.630;2023-05-17T03:51:37;7.00;99.90
23873;DHT22;42884;50.718;4.630;2023-05-17T03:54:03;6.90;99.90
23873;DHT22;42884;50.718;4.630;2023-05-17T03:56:29;6.90;99.90
23873;DHT22;42884;50.718;4.630;2023-05-17T03:58:55;6.90;99.90
23873;DHT22;42884;50.718;4.630;2023-05-17T04:01:21;6.90;99.90
23873;DHT22;42884;50.718;4.630;2023-05-17T04:03:47;7.00;99.90
23873;DHT22;42884;50.718;4.630;2023-05-17T04:06:13;7.00;99.90
23873;DHT22;42884;50.718;4.630;2023-05-17T04:08:39;7.00;99.90
23873;DHT22;42884;50.718;4.630;2023-05-17T04:11:05;7.00;99.90
23873;DHT22;42884;50.718;4.630;2023-05-17T04:13:41;7.00;99.90
23873;DHT22;42884;50.718;4.630;2023-05-17T04:16:08;7.00;99.90
23873;DHT22;42884;50.718;4.630;2023-05-17T04:18:34;6.90;99.90
23873;DHT22;42884;50.718;4.630;2023-05-17T04:21:01;6.90;99.90
23873;DHT22;42884;50.718;4.630;2023-05-17T04:23:26;6.90;99.90
23873;DHT22;42884;50.718;4.630;2023-05-17T04:25:52;6.90;99.90
23873;DHT22;42884;50.718;4.630;2023-05-17T04:28:18;6.90;99.90
23873;DHT22;42884;50.718;4.630;2023-05-17T04:30:45;6.90;99.90
23873;DHT22;42884;50.718;4.630;2023-05-17T04:33:12;7.00;99.90
23873;DHT22;42884;50.718;4.630;2023-05-17T04:35:39;7.00;99.90
23873;DHT22;42884;50.718;4.630;2023-05-17T04:38:06;7.00;99.90
23873;DHT22;42884;50.718;4.630;2023-05-17T04:40:32;7.00;99.90
23873;DHT22;42884;50.718;4.630;2023-05-17T04:42:58;7.10;99.90
23873;DHT22;42884;50.718;4.630;2023-05-17T04:45:24;7.10;99.90
23873;DHT22;42884;50.718;4.630;2023-05-17T04:47:50;7.30;99.90
23873;DHT22;42884;50.718;4.630;2023-05-17T04:50:17;7.30;99.90
23873;DHT22;42884;50.718;4.630;2023-05-17T04:52:44;7.40;99.90
23873;DHT22;42884;50.718;4.630;2023-05-17T04:55:10;7.50;99.90
23873;DHT22;42884;50.718;4.630;2023-05-17T04:57:36;7.60;99.90
23873;DHT22;42884;50.718;4.630;2023-05-17T05:00:03;7.80;99.90
23873;DHT22;42884;50.718;4.630;2023-05-17T05:02:32;7.90;99.90
23873;DHT22;42884;50.718;4.630;2023-05-17T05:04:59;8.00;99.90
23873;DHT22;42884;50.718;4.630;2023-05-17T05:07:25;8.10;99.90
23873;DHT22;42884;50.718;4.630;2023-05-17T05:09:50;8.30;99.90
23873;DHT22;42884;50.718;4.630;2023-05-17T05:12:17;8.40;99.90
23873;DHT22;42884;50.718;4.630;2023-05-17T05:14:43;8.50;99.90
23873;DHT22;42884;50.718;4.630;2023-05-17T05:17:08;8.60;99.90
23873;DHT22;42884;50.718;4.630;2023-05-17T05:19:34;8.70;99.90
23873;DHT22;42884;50.718;4.630;2023-05-17T05:22:00;8.80;99.90
23873;DHT22;42884;50.718;4.630;2023-05-17T05:24:26;8.90;99.90
23873;DHT22;42884;50.718;4.630;2023-05-17T05:26:51;9.00;99.90
23873;DHT22;42884;50.718;4.630;2023-05-17T05:29:17;9.10;99.90
23873;DHT22;42884;50.718;4.630;2023-05-17T05:31:43;9.30;99.90
23873;DHT22;42884;50.718;4.630;2023-05-17T05:34:09;9.40;99.90
23873;DHT22;42884;50.718;4.630;2023-05-17T05:36:36;9.40;99.90
23873;DHT22;42884;50.718;4.630;2023-05-17T05:39:02;9.60;99.90
23873;DHT22;42884;50.718;4.630;2023-05-17T05:41:28;9.60;99.90
23873;DHT22;42884;50.718;4.630;2023-05-17T05:43:54;9.80;99.90
23873;DHT22;42884;50.718;4.630;2023-05-17T05:46:19;9.80;99.90
23873;DHT22;42884;50.718;4.630;2023-05-17T05:48:45;9.90;99.90
23873;DHT22;42884;50.718;4.630;2023-05-17T05:51:11;10.10;99.90
23873;DHT22;42884;50.718;4.630;2023-05-17T05:53:39;10.00;99.90
23873;DHT22;42884;50.718;4.630;2023-05-17T05:56:05;10.10;99.90
23873;DHT22;42884;50.718;4.630;2023-05-17T05:58:31;10.30;99.90
23873;DHT22;42884;50.718;4.630;2023-05-17T06:00:57;10.40;99.90
23873;DHT22;42884;50.718;4.630;2023-05-17T06:03:24;10.50;99.90
23873;DHT22;42884;50.718;4.630;2023-05-17T06:05:50;10.70;99.90
23873;DHT22;42884;50.718;4.630;2023-05-17T06:08:16;10.80;99.90
23873;DHT22;42884;50.718;4.630;2023-05-17T06:10:42;10.80;99.90
23873;DHT22;42884;50.718;4.630;2023-05-17T06:13:07;11.00;99.90
23873;DHT22;42884;50.718;4.630;2023-05-17T06:15:34;11.10;99.90
23873;DHT22;42884;50.718;4.630;2023-05-17T06:18:00;11.20;99.90
23873;DHT22;42884;50.718;4.630;2023-05-17T06:20:26;11.40;99.90
23873;DHT22;42884;50.718;4.630;2023-05-17T06:22:51;11.40;99.90
23873;DHT22;42884;50.718;4.630;2023-05-17T06:25:17;11.60;99.90
23873;DHT22;42884;50.718;4.630;2023-05-17T06:27:43;11.70;99.90
23873;DHT22;42884;50.718;4.630;2023-05-17T06:30:09;11.90;99.90
23873;DHT22;42884;50.718;4.630;2023-05-17T06:32:35;11.90;99.90
23873;DHT22;42884;50.718;4.630;2023-05-17T06:35:01;12.00;99.90
23873;DHT22;42884;50.718;4.630;2023-05-17T06:37:27;12.10;99.90
23873;DHT22;42884;50.718;4.630;2023-05-17T06:40:01;12.20;99.90
23873;DHT22;42884;50.718;4.630;2023-05-17T06:42:29;12.30;99.90
23873;DHT22;42884;50.718;4.630;2023-05-17T06:44:54;12.40;99.90
23873;DHT22;42884;50.718;4.630;2023-05-17T06:47:20;12.60;99.90
23873;DHT22;42884;50.718;4.630;2023-05-17T06:49:46;12.70;99.90
23873;DHT22;42884;50.718;4.630;2023-05-17T06:52:11;12.80;99.90
23873;DHT22;42884;50.718;4.630;2023-05-17T06:54:37;12.80;99.90
23873;DHT22;42884;50.718;4.630;2023-05-17T06:57:03;12.90;99.90
23873;DHT22;42884;50.718;4.630;2023-05-17T06:59:30;13.10;99.90
23873;DHT22;42884;50.718;4.630;2023-05-17T07:01:55;13.20;99.90
23873;DHT22;42884;50.718;4.630;2023-05-17T07:04:21;13.40;99.90
23873;DHT22;42884;50.718;4.630;2023-05-17T07:06:47;13.60;99.90
23873;DHT22;42884;50.718;4.630;2023-05-17T07:09:13;13.70;99.90
23873;DHT22;42884;50.718;4.630;2023-05-17T07:11:39;13.60;99.90
23873;DHT22;42884;50.718;4.630;2023-05-17T07:14:05;13.60;99.90
23873;DHT22;42884;50.718;4.630;2023-05-17T07:16:30;13.60;99.90
23873;DHT22;42884;50.718;4.630;2023-05-17T07:18:56;13.70;99.90
23873;DHT22;42884;50.718;4.630;2023-05-17T07:21:22;13.80;99.90
23873;DHT22;42884;50.718;4.630;2023-05-17T07:23:51;14.00;99.90
23873;DHT22;42884;50.718;4.630;2023-05-17T07:26:18;14.00;99.90
23873;DHT22;42884;50.718;4.630;2023-05-17T07:28:44;14.10;99.90
23873;DHT22;42884;50.718;4.630;2023-05-17T07:31:10;14.10;99.90
23873;DHT22;42884;50.718;4.630;2023-05-17T07:33:36;14.30;99.90
23873;DHT22;42884;50.718;4.630;2023-05-17T07:36:03;14.50;99.90
23873;DHT22;42884;50.718;4.630;2023-05-17T07:38:29;14.70;99.90
23873;DHT22;42884;50.718;4.630;2023-05-17T07:40:54;14.80;99.90
23873;DHT22;42884;50.718;4.630;2023-05-17T07:43:20;14.80;99.90
23873;DHT22;42884;50.718;4.630;2023-05-17T07:45:46;15.00;99.90
23873;DHT22;42884;50.718;4.630;2023-05-17T07:48:12;15.20;99.90
23873;DHT22;42884;50.718;4.630;2023-05-17T07:50:38;15.40;99.90
23873;DHT22;42884;50.718;4.630;2023-05-17T07:53:04;15.50;99.90
23873;DHT22;42884;50.718;4.630;2023-05-17T07:55:29;15.40;99.90
23873;DHT22;42884;50.718;4.630;2023-05-17T07:57:55;15.60;99.90
23873;DHT22;42884;50.718;4.630;2023-05-17T08:00:21;15.80;99.90
23873;DHT22;42884;50.718;4.630;2023-05-17T08:02:47;15.80;99.90
23873;DHT22;42884;50.718;4.630;2023-05-17T08:05:13;15.80;99.90
23873;DHT22;42884;50.718;4.630;2023-05-17T08:07:39;15.60;99.90
23873;DHT22;42884;50.718;4.630;2023-05-17T08:10:05;15.70;99.90
23873;DHT22;42884;50.718;4.630;2023-05-17T08:12:31;15.80;99.90
23873;DHT22;42884;50.718;4.630;2023-05-17T08:14:57;15.90;99.90
23873;DHT22;42884;50.718;4.630;2023-05-17T08:17:22;15.90;99.90
23873;DHT22;42884;50.718;4.630;2023-05-17T08:19:48;15.90;99.90
23873;DHT22;42884;50.718;4.630;2023-05-17T08:22:14;16.00;99.90
23873;DHT22;42884;50.718;4.630;2023-05-17T08:24:40;16.20;99.90
23873;DHT22;42884;50.718;4.630;2023-05-17T08:27:06;16.60;99.90
23873;DHT22;42884;50.718;4.630;2023-05-17T08:29:32;16.90;99.90
23873;DHT22;42884;50.718;4.630;2023-05-17T08:31:57;17.00;99.90
23873;DHT22;42884;50.718;4.630;2023-05-17T08:34:23;17.50;99.90
23873;DHT22;42884;50.718;4.630;2023-05-17T08:36:49;17.70;99.90
23873;DHT22;42884;50.718;4.630;2023-05-17T08:39:15;18.10;99.90
23873;DHT22;42884;50.718;4.630;2023-05-17T08:41:41;18.60;99.90
23873;DHT22;42884;50.718;4.630;2023-05-17T08:44:06;18.50;99.90
23873;DHT22;42884;50.718;4.630;2023-05-17T08:46:34;18.80;99.90
23873;DHT22;42884;50.718;4.630;2023-05-17T08:49:02;19.00;99.90
23873;DHT22;42884;50.718;4.630;2023-05-17T08:51:31;19.10;99.90
23873;DHT22;42884;50.718;4.630;2023-05-17T08:53:57;19.40;99.90
23873;DHT22;42884;50.718;4.630;2023-05-17T08:56:25;19.60;99.90
23873;DHT22;42884;50.718;4.630;2023-05-17T08:58:54;19.40;99.90
23873;DHT22;42884;50.718;4.630;2023-05-17T09:01:21;19.20;99.90
23873;DHT22;42884;50.718;4.630;2023-05-17T09:03:48;19.10;99.90
23873;DHT22;42884;50.718;4.630;2023-05-17T09:06:20;19.40;99.90
23873;DHT22;42884;50.718;4.630;2023-05-17T09:08:46;18.90;99.90
23873;DHT22;42884;50.718;4.630;2023-05-17T09:11:14;19.00;99.90
23873;DHT22;42884;50.718;4.630;2023-05-17T09:13:48;18.50;99.90
23873;DHT22;42884;50.718;4.630;2023-05-17T09:16:15;18.20;99.90
23873;DHT22;42884;50.718;4.630;2023-05-17T09:18:40;18.60;99.90
23873;DHT22;42884;50.718;4.630;2023-05-17T09:21:06;19.10;99.90
23873;DHT22;42884;50.718;4.630;2023-05-17T09:23:37;19.70;99.90
23873;DHT22;42884;50.718;4.630;2023-05-17T09:26:04;20.20;99.90
23873;DHT22;42884;50.718;4.630;2023-05-17T09:28:41;20.20;99.90
23873;DHT22;42884;50.718;4.630;2023-05-17T09:31:08;20.30;99.90
23873;DHT22;42884;50.718;4.630;2023-05-17T09:33:45;19.80;99.90
23873;DHT22;42884;50.718;4.630;2023-05-17T09:36:21;19.60;99.90
23873;DHT22;42884;50.718;4.630;2023-05-17T09:38:59;19.50;99.90
23873;DHT22;42884;50.718;4.630;2023-05-17T09:41:46;19.90;99.90
23873;DHT22;42884;50.718;4.630;2023-05-17T09:44:14;20.30;99.90
23873;DHT22;42884;50.718;4.630;2023-05-17T09:46:43;20.80;99.90
23873;DHT22;42884;50.718;4.630;2023-05-17T09:49:09;21.20;99.90
23873;DHT22;42884;50.718;4.630;2023-05-17T09:51:46;21.70;99.90
23873;DHT22;42884;50.718;4.630;2023-05-17T09:54:12;21.90;99.90
23873;DHT22;42884;50.718;4.630;2023-05-17T09:56:39;21.80;99.90
23873;DHT22;42884;50.718;4.630;2023-05-17T09:59:13;22.10;99.90
23873;DHT22;42884;50.718;4.630;2023-05-17T10:01:41;21.90;99.90
23873;DHT22;42884;50.718;4.630;2023-05-17T10:04:10;21.50;99.90
23873;DHT22;42884;50.718;4.630;2023-05-17T10:06:41;21.60;99.90
23873;DHT22;42884;50.718;4.630;2023-05-17T10:09:11;22.00;99.90
23873;DHT22;42884;50.718;4.630;2023-05-17T10:11:39;22.20;99.20
23873;DHT22;42884;50.718;4.630;2023-05-17T10:14:18;21.90;99.50
23873;DHT22;42884;50.718;4.630;2023-05-17T10:16:48;22.20;98.10
23873;DHT22;42884;50.718;4.630;2023-05-17T10:19:14;22.70;99.90
23873;DHT22;42884;50.718;4.630;2023-05-17T10:21:41;22.80;97.00
23873;DHT22;42884;50.718;4.630;2023-05-17T10:24:09;22.70;98.90
23873;DHT22;42884;50.718;4.630;2023-05-17T10:26:35;23.20;99.00
23873;DHT22;42884;50.718;4.630;2023-05-17T10:29:03;23.50;99.20
23873;DHT22;42884;50.718;4.630;2023-05-17T10:31:32;23.70;97.10
23873;DHT22;42884;50.718;4.630;2023-05-17T10:34:00;23.70;98.00
23873;DHT22;42884;50.718;4.630;2023-05-17T10:36:26;23.50;97.60
23873;DHT22;42884;50.718;4.630;2023-05-17T10:38:52;23.60;95.80
23873;DHT22;42884;50.718;4.630;2023-05-17T10:41:22;23.80;95.30
23873;DHT22;42884;50.718;4.630;2023-05-17T10:43:49;23.90;96.10
23873;DHT22;42884;50.718;4.630;2023-05-17T10:46:19;23.80;97.20
23873;DHT22;42884;50.718;4.630;2023-05-17T10:48:51;23.80;95.80
23873;DHT22;42884;50.718;4.630;2023-05-17T10:51:28;23.80;96.50
23873;DHT22;42884;50.718;4.630;2023-05-17T10:56:29;24.00;96.30
23873;DHT22;42884;50.718;4.630;2023-05-17T10:59:21;24.20;96.70
23873;DHT22;42884;50.718;4.630;2023-05-17T11:01:55;24.10;96.10
23873;DHT22;42884;50.718;4.630;2023-05-17T11:04:42;24.40;95.70
23873;DHT22;42884;50.718;4.630;2023-05-17T11:09:46;24.50;95.70
23873;DHT22;42884;50.718;4.630;2023-05-17T11:12:14;24.40;95.30
23873;DHT22;42884;50.718;4.630;2023-05-17T11:19:54;25.40;96.40
23873;DHT22;42884;50.718;4.630;2023-05-17T11:22:24;25.20;95.00
23873;DHT22;42884;50.718;4.630;2023-05-17T11:24:51;24.80;93.60
23873;DHT22;42884;50.718;4.630;2023-05-17T11:27:20;24.80;93.60
23873;DHT22;42884;50.718;4.630;2023-05-17T11:29:52;24.80;94.70
23873;DHT22;42884;50.718;4.630;2023-05-17T11:32:29;24.70;95.60
23873;DHT22;42884;50.718;4.630;2023-05-17T11:34:58;24.50;94.70
23873;DHT22;42884;50.718;4.630;2023-05-17T11:37:25;24.30;93.00
23873;DHT22;42884;50.718;4.630;2023-05-17T11:40:05;24.10;94.60
23873;DHT22;42884;50.718;4.630;2023-05-17T11:42:33;24.20;92.70
23873;DHT22;42884;50.718;4.630;2023-05-17T11:45:01;23.90;92.80
23873;DHT22;42884;50.718;4.630;2023-05-17T11:47:27;23.80;93.50
23873;DHT22;42884;50.718;4.630;2023-05-17T11:49:54;23.50;96.10
23873;DHT22;42884;50.718;4.630;2023-05-17T11:52:21;23.60;92.60
23873;DHT22;42884;50.718;4.630;2023-05-17T11:54:48;23.40;93.90
23873;DHT22;42884;50.718;4.630;2023-05-17T11:57:14;23.60;93.90
23873;DHT22;42884;50.718;4.630;2023-05-17T11:59:42;23.60;95.50
23873;DHT22;42884;50.718;4.630;2023-05-17T12:02:08;23.50;94.90
23873;DHT22;42884;50.718;4.630;2023-05-17T12:04:36;23.50;92.50
23873;DHT22;42884;50.718;4.630;2023-05-17T12:07:02;23.50;94.30
23873;DHT22;42884;50.718;4.630;2023-05-17T12:09:28;23.10;94.20
23873;DHT22;42884;50.718;4.630;2023-05-17T12:11:54;23.10;92.90
23873;DHT22;42884;50.718;4.630;2023-05-17T12:14:21;22.80;95.60
23873;DHT22;42884;50.718;4.630;2023-05-17T12:16:50;23.00;94.10
23873;DHT22;42884;50.718;4.630;2023-05-17T12:19:22;22.80;94.90
23873;DHT22;42884;50.718;4.630;2023-05-17T12:21:49;22.60;92.80
23873;DHT22;42884;50.718;4.630;2023-05-17T12:24:16;22.30;95.10
23873;DHT22;42884;50.718;4.630;2023-05-17T12:26:43;22.50;93.10
23873;DHT22;42884;50.718;4.630;2023-05-17T12:29:09;22.50;94.20
23873;DHT22;42884;50.718;4.630;2023-05-17T12:31:38;22.00;94.30
23873;DHT22;42884;50.718;4.630;2023-05-17T12:34:05;21.90;95.30
23873;DHT22;42884;50.718;4.630;2023-05-17T12:36:33;22.10;96.90
23873;DHT22;42884;50.718;4.630;2023-05-17T12:39:01;22.30;95.40
23873;DHT22;42884;50.718;4.630;2023-05-17T12:41:28;22.10;92.00
23873;DHT22;42884;50.718;4.630;2023-05-17T12:43:55;22.10;93.50
23873;DHT22;42884;50.718;4.630;2023-05-17T12:46:23;22.70;95.20
23873;DHT22;42884;50.718;4.630;2023-05-17T12:48:50;22.80;94.70
23873;DHT22;42884;50.718;4.630;2023-05-17T12:51:21;22.70;90.40
23873;DHT22;42884;50.718;4.630;2023-05-17T12:53:51;22.80;93.10
23873;DHT22;42884;50.718;4.630;2023-05-17T12:56:21;23.10;89.50
23873;DHT22;42884;50.718;4.630;2023-05-17T13:01:35;23.20;91.70
23873;DHT22;42884;50.718;4.630;2023-05-17T13:04:02;23.20;93.40
23873;DHT22;42884;50.718;4.630;2023-05-17T13:06:28;23.40;90.10
23873;DHT22;42884;50.718;4.630;2023-05-17T13:08:58;23.70;90.40
23873;DHT22;42884;50.718;4.630;2023-05-17T13:11:24;23.70;93.00
23873;DHT22;42884;50.718;4.630;2023-05-17T13:13:50;23.80;88.50
23873;DHT22;42884;50.718;4.630;2023-05-17T13:16:16;23.50;89.70
23873;DHT22;42884;50.718;4.630;2023-05-17T13:18:49;23.80;90.50
23873;DHT22;42884;50.718;4.630;2023-05-17T13:21:17;23.70;92.70
23873;DHT22;42884;50.718;4.630;2023-05-17T13:23:47;24.00;90.80
23873;DHT22;42884;50.718;4.630;2023-05-17T13:26:14;23.90;85.70
23873;DHT22;42884;50.718;4.630;2023-05-17T13:28:40;23.90;89.30
23873;DHT22;42884;50.718;4.630;2023-05-17T13:31:06;23.70;90.50
23873;DHT22;42884;50.718;4.630;2023-05-17T13:33:32;23.60;83.40
23873;DHT22;42884;50.718;4.630;2023-05-17T13:35:57;23.40;85.60
23873;DHT22;42884;50.718;4.630;2023-05-17T13:38:23;23.70;89.50
23873;DHT22;42884;50.718;4.630;2023-05-17T13:40:48;23.70;87.80
23873;DHT22;42884;50.718;4.630;2023-05-17T13:43:15;23.70;85.80
23873;DHT22;42884;50.718;4.630;2023-05-17T13:45:41;23.80;90.40
23873;DHT22;42884;50.718;4.630;2023-05-17T13:48:06;23.60;85.30
23873;DHT22;42884;50.718;4.630;2023-05-17T13:50:32;23.90;91.70
23873;DHT22;42884;50.718;4.630;2023-05-17T13:52:58;24.20;87.20
23873;DHT22;42884;50.718;4.630;2023-05-17T13:55:26;24.60;87.90
23873;DHT22;42884;50.718;4.630;2023-05-17T13:57:51;24.90;90.10
23873;DHT22;42884;50.718;4.630;2023-05-17T14:00:18;25.30;86.20
23873;DHT22;42884;50.718;4.630;2023-05-17T14:02:43;25.10;86.50
23873;DHT22;42884;50.718;4.630;2023-05-17T14:05:09;25.00;84.60
23873;DHT22;42884;50.718;4.630;2023-05-17T14:07:35;24.70;85.50
23873;DHT22;42884;50.718;4.630;2023-05-17T14:10:09;25.00;82.80
23873;DHT22;42884;50.718;4.630;2023-05-17T14:12:38;25.30;84.60
23873;DHT22;42884;50.718;4.630;2023-05-17T14:15:04;25.10;84.50
23873;DHT22;42884;50.718;4.630;2023-05-17T14:17:30;24.40;82.30
23873;DHT22;42884;50.718;4.630;2023-05-17T14:19:57;24.40;84.60
23873;DHT22;42884;50.718;4.630;2023-05-17T14:22:23;24.80;84.50
23873;DHT22;42884;50.718;4.630;2023-05-17T14:24:49;25.00;88.60
23873;DHT22;42884;50.718;4.630;2023-05-17T14:27:14;24.80;83.20
23873;DHT22;42884;50.718;4.630;2023-05-17T14:29:40;25.10;83.80
23873;DHT22;42884;50.718;4.630;2023-05-17T14:32:06;25.30;86.50
23873;DHT22;42884;50.718;4.630;2023-05-17T14:34:31;25.30;82.20
23873;DHT22;42884;50.718;4.630;2023-05-17T14:36:57;24.80;81.10
23873;DHT22;42884;50.718;4.630;2023-05-17T14:39:23;24.80;86.10
23873;DHT22;42884;50.718;4.630;2023-05-17T14:41:48;24.80;85.50
23873;DHT22;42884;50.718;4.630;2023-05-17T14:44:14;24.50;81.10
23873;DHT22;42884;50.718;4.630;2023-05-17T14:46:40;24.40;82.00
23873;DHT22;42884;50.718;4.630;2023-05-17T14:49:06;24.60;86.20
23873;DHT22;42884;50.718;4.630;2023-05-17T14:51:31;24.40;81.10
23873;DHT22;42884;50.718;4.630;2023-05-17T14:53:57;24.30;85.80
23873;DHT22;42884;50.718;4.630;2023-05-17T14:56:23;24.40;81.70
23873;DHT22;42884;50.718;4.630;2023-05-17T14:58:50;24.40;79.70
23873;DHT22;42884;50.718;4.630;2023-05-17T15:01:15;24.20;82.90
23873;DHT22;42884;50.718;4.630;2023-05-17T15:03:41;24.60;86.10
23873;DHT22;42884;50.718;4.630;2023-05-17T15:06:07;24.80;83.90
23873;DHT22;42884;50.718;4.630;2023-05-17T15:08:34;24.90;85.30
23873;DHT22;42884;50.718;4.630;2023-05-17T15:11:00;24.80;83.20
23873;DHT22;42884;50.718;4.630;2023-05-17T15:13:25;24.10;86.10
23873;DHT22;42884;50.718;4.630;2023-05-17T15:15:51;24.20;85.60
23873;DHT22;42884;50.718;4.630;2023-05-17T15:18:17;24.20;85.10
23873;DHT22;42884;50.718;4.630;2023-05-17T15:20:43;23.90;85.50
23873;DHT22;42884;50.718;4.630;2023-05-17T15:23:09;23.80;84.40
23873;DHT22;42884;50.718;4.630;2023-05-17T15:25:34;24.00;84.50
23873;DHT22;42884;50.718;4.630;2023-05-17T15:28:01;24.10;88.60
23873;DHT22;42884;50.718;4.630;2023-05-17T15:30:26;23.80;84.10
23873;DHT22;42884;50.718;4.630;2023-05-17T15:32:54;24.10;86.20
23873;DHT22;42884;50.718;4.630;2023-05-17T15:35:19;24.40;87.50
23873;DHT22;42884;50.718;4.630;2023-05-17T15:37:46;24.40;83.40
23873;DHT22;42884;50.718;4.630;2023-05-17T15:40:12;24.40;85.30
23873;DHT22;42884;50.718;4.630;2023-05-17T15:42:39;24.30;85.70
23873;DHT22;42884;50.718;4.630;2023-05-17T15:45:05;24.30;85.00
23873;DHT22;42884;50.718;4.630;2023-05-17T15:47:31;24.00;80.80
23873;DHT22;42884;50.718;4.630;2023-05-17T15:49:58;23.60;85.10
23873;DHT22;42884;50.718;4.630;2023-05-17T15:52:24;23.70;82.60
23873;DHT22;42884;50.718;4.630;2023-05-17T15:54:50;23.90;84.10
23873;DHT22;42884;50.718;4.630;2023-05-17T15:57:18;23.80;86.30
23873;DHT22;42884;50.718;4.630;2023-05-17T15:59:44;23.40;84.60
23873;DHT22;42884;50.718;4.630;2023-05-17T16:02:09;23.20;84.90